sensor_id;sensor_type;location;lat;lon;timestamp;pressure;altitude;pressure_sealevel;temperature;humidity
8894;BME280;4483;48.622;9.230;2023-04-04T00:01:55;98676.88;;;1.60;65.34
8894;BME280;4483;48.622;9.230;2023-04-04T00:04:21;98669.28;;;1.62;65.40
8894;BME280;4483;48.622;9.230;2023-04-04T00:06:48;98665.06;;;1.62;66.06
8894;BME280;4483;48.622;9.230;2023-04-04T00:09:16;98661.66;;;1.62;65.31
8894;BME280;4483;48.622;9.230;2023-04-04T00:11:44;98653.16;;;1.60;66.01
8894;BME280;4483;48.622;9.230;2023-04-04T00:14:11;98659.97;;;1.62;65.96
8894;BME280;4483;48.622;9.230;2023-04-04T00:16:38;98664.19;;;1.62;65.84
8894;BME280;4483;48.622;9.230;2023-04-04T00:19:04;98659.97;;;1.59;65.69
8894;BME280;4483;48.622;9.230;2023-04-04T00:21:31;98664.19;;;1.59;65.81
8894;BME280;4483;48.622;9.230;2023-04-04T00:23:58;98657.38;;;1.56;66.19
8894;BME280;4483;48.622;9.230;2023-04-04T00:26:25;98653.97;;;1.56;66.15
8894;BME280;4483;48.622;9.230;2023-04-04T00:28:53;98653.97;;;1.56;66.49
8894;BME280;4483;48.622;9.230;2023-04-04T00:31:20;98651.44;;;1.54;66.35
8894;BME280;4483;48.622;9.230;2023-04-04T00:33:47;98653.09;;;1.52;66.96
8894;BME280;4483;48.622;9.230;2023-04-04T00:36:14;98650.56;;;1.51;66.34
8894;BME280;4483;48.622;9.230;2023-04-04T00:38:41;98649.69;;;1.49;67.00
8894;BME280;4483;48.622;9.230;2023-04-04T00:41:08;98646.34;;;1.48;66.88
8894;BME280;4483;48.622;9.230;2023-04-04T00:43:35;98648.00;;;1.46;67.28
8894;BME280;4483;48.622;9.230;2023-04-04T00:46:03;98647.13;;;1.43;67.58
8894;BME280;4483;48.622;9.230;2023-04-04T00:48:30;98643.69;;;1.39;67.51
8894;BME280;4483;48.622;9.230;2023-04-04T00:50:57;98645.34;;;1.36;67.43
8894;BME280;4483;48.622;9.230;2023-04-04T00:53:24;98645.34;;;1.33;67.97
8894;BME280;4483;48.622;9.230;2023-04-04T00:55:50;98647.81;;;1.24;67.77
8894;BME280;4483;48.622;9.230;2023-04-04T00:58:17;98635.09;;;1.21;68.06
8894;BME280;4483;48.622;9.230;2023-04-04T01:00:44;98625.75;;;1.15;68.59
8894;BME280;4483;48.622;9.230;2023-04-04T01:03:12;98637.56;;;1.16;68.55
8894;BME280;4483;48.622;9.230;2023-04-04T01:05:39;98636.72;;;1.13;68.94
8894;BME280;4483;48.622;9.230;2023-04-04T01:08:06;98637.50;;;1.10;68.60
8894;BME280;4483;48.622;9.230;2023-04-04T01:10:32;98634.09;;;1.07;69.06
8894;BME280;4483;48.622;9.230;2023-04-04T01:13:00;98640.91;;;1.08;68.52
8894;BME280;4483;48.622;9.230;2023-04-04T01:15:27;98632.44;;;1.09;69.32
8894;BME280;4483;48.622;9.230;2023-04-04T01:17:56;98627.34;;;1.07;69.52
8894;BME280;4483;48.622;9.230;2023-04-04T01:20:28;98626.47;;;1.02;68.94
8894;BME280;4483;48.622;9.230;2023-04-04T01:22:58;98624.72;;;0.96;69.39
8894;BME280;4483;48.622;9.230;2023-04-04T01:25:29;98628.06;;;0.92;70.01
8894;BME280;4483;48.622;9.230;2023-04-04T01:27:58;98624.66;;;0.90;69.82
8894;BME280;4483;48.622;9.230;2023-04-04T01:30:28;98623.78;;;0.90;69.89
8894;BME280;4483;48.622;9.230;2023-04-04T01:33:00;98618.72;;;0.88;70.06
8894;BME280;4483;48.622;9.230;2023-04-04T01:35:32;98625.47;;;0.88;69.92
8894;BME280;4483;48.622;9.230;2023-04-04T01:38:07;98620.38;;;0.85;70.19
8894;BME280;4483;48.622;9.230;2023-04-04T01:40:40;98614.41;;;0.81;70.01
8894;BME280;4483;48.622;9.230;2023-04-04T01:43:08;98619.47;;;0.78;70.75
8894;BME280;4483;48.622;9.230;2023-04-04T01:45:35;98621.13;;;0.76;70.11
8894;BME280;4483;48.622;9.230;2023-04-04T01:48:01;98616.00;;;0.70;70.79
8894;BME280;4483;48.622;9.230;2023-04-04T01:50:28;98617.63;;;0.65;70.58
8894;BME280;4483;48.622;9.230;2023-04-04T01:52:55;98613.34;;;0.61;70.89
8894;BME280;4483;48.622;9.230;2023-04-04T01:55:21;98614.22;;;0.60;71.32
8894;BME280;4483;48.622;9.230;2023-04-04T01:57:49;98616.69;;;0.57;71.33
8894;BME280;4483;48.622;9.230;2023-04-04T02:00:16;98623.44;;;0.55;70.90
8894;BME280;4483;48.622;9.230;2023-04-04T02:02:43;98621.72;;;0.53;70.93
8894;BME280;4483;48.622;9.230;2023-04-04T02:05:10;98620.00;;;0.50;70.86
8894;BME280;4483;48.622;9.230;2023-04-04T02:07:37;98622.53;;;0.50;71.47
8894;BME280;4483;48.622;9.230;2023-04-04T02:10:04;98619.13;;;0.50;71.09
8894;BME280;4483;48.622;9.230;2023-04-04T02:12:31;98617.44;;;0.47;71.94
8894;BME280;4483;48.622;9.230;2023-04-04T02:14:59;98626.72;;;0.45;71.31
8894;BME280;4483;48.622;9.230;2023-04-04T02:17:26;98616.50;;;0.42;71.56
8894;BME280;4483;48.622;9.230;2023-04-04T02:19:53;98627.47;;;0.40;72.07
8894;BME280;4483;48.622;9.230;2023-04-04T02:22:20;98627.47;;;0.38;71.46
8894;BME280;4483;48.622;9.230;2023-04-04T02:24:47;98619.00;;;0.36;71.66
8894;BME280;4483;48.622;9.230;2023-04-04T02:27:13;98619.00;;;0.35;72.06
8894;BME280;4483;48.622;9.230;2023-04-04T02:29:40;98627.38;;;0.32;72.30
8894;BME280;4483;48.622;9.230;2023-04-04T02:32:08;98619.69;;;0.26;71.39
8894;BME280;4483;48.622;9.230;2023-04-04T02:34:34;98617.13;;;0.22;72.02
8894;BME280;4483;48.622;9.230;2023-04-04T02:37:01;98617.06;;;0.17;72.45
8894;BME280;4483;48.622;9.230;2023-04-04T02:39:29;98620.44;;;0.16;72.40
8894;BME280;4483;48.622;9.230;2023-04-04T02:41:55;98617.91;;;0.15;72.29
8894;BME280;4483;48.622;9.230;2023-04-04T02:44:22;98611.94;;;0.13;72.14
8894;BME280;4483;48.622;9.230;2023-04-04T02:46:48;98617.03;;;0.13;72.43
8894;BME280;4483;48.622;9.230;2023-04-04T02:49:16;98612.75;;;0.10;72.57
8894;BME280;4483;48.622;9.230;2023-04-04T02:51:44;98609.34;;;0.10;72.54
8894;BME280;4483;48.622;9.230;2023-04-04T02:54:11;98611.06;;;0.09;72.54
8894;BME280;4483;48.622;9.230;2023-04-04T02:56:37;98604.28;;;0.10;72.77
8894;BME280;4483;48.622;9.230;2023-04-04T02:59:04;98601.72;;;0.07;72.29
8894;BME280;4483;48.622;9.230;2023-04-04T03:01:30;98610.13;;;0.04;72.41
8894;BME280;4483;48.622;9.230;2023-04-04T03:03:57;98615.16;;;0.01;73.20
8894;BME280;4483;48.622;9.230;2023-04-04T03:06:25;98620.22;;;-0.02;72.45
8894;BME280;4483;48.622;9.230;2023-04-04T03:08:52;98609.97;;;-0.08;72.45
8894;BME280;4483;48.622;9.230;2023-04-04T03:11:19;98604.06;;;-0.07;73.10
8894;BME280;4483;48.622;9.230;2023-04-04T03:13:45;98614.19;;;-0.09;73.45
8894;BME280;4483;48.622;9.230;2023-04-04T03:16:12;98605.69;;;-0.15;73.47
8894;BME280;4483;48.622;9.230;2023-04-04T03:18:42;98612.44;;;-0.13;72.72
8894;BME280;4483;48.622;9.230;2023-04-04T03:21:08;98610.75;;;-0.15;73.03
8894;BME280;4483;48.622;9.230;2023-04-04T03:23:36;98613.28;;;-0.15;72.91
8894;BME280;4483;48.622;9.230;2023-04-04T03:26:03;98617.44;;;-0.19;73.08
8894;BME280;4483;48.622;9.230;2023-04-04T03:28:30;98615.69;;;-0.23;73.25
8894;BME280;4483;48.622;9.230;2023-04-04T03:30:56;98614.81;;;-0.26;73.36
8894;BME280;4483;48.622;9.230;2023-04-04T03:33:28;98617.25;;;-0.32;73.82
8894;BME280;4483;48.622;9.230;2023-04-04T03:35:54;98613.81;;;-0.36;73.95
8894;BME280;4483;48.622;9.230;2023-04-04T03:38:21;98609.53;;;-0.40;73.67
8894;BME280;4483;48.622;9.230;2023-04-04T03:40:49;98609.50;;;-0.41;73.42
8894;BME280;4483;48.622;9.230;2023-04-04T03:43:16;98610.31;;;-0.44;74.35
8894;BME280;4483;48.622;9.230;2023-04-04T03:45:43;98608.59;;;-0.46;74.44
8894;BME280;4483;48.622;9.230;2023-04-04T03:48:09;98614.47;;;-0.47;73.91
8894;BME280;4483;48.622;9.230;2023-04-04T03:50:36;98611.91;;;-0.50;73.98
8894;BME280;4483;48.622;9.230;2023-04-04T03:53:03;98614.41;;;-0.53;73.92
8894;BME280;4483;48.622;9.230;2023-04-04T03:55:29;98616.88;;;-0.55;74.52
8894;BME280;4483;48.622;9.230;2023-04-04T03:57:57;98611.75;;;-0.62;74.51
8894;BME280;4483;48.622;9.230;2023-04-04T04:00:24;98615.84;;;-0.67;74.54
8894;BME280;4483;48.622;9.230;2023-04-04T04:02:53;98614.09;;;-0.71;74.73
8894;BME280;4483;48.622;9.230;2023-04-04T04:05:20;98615.78;;;-0.73;75.16
8894;BME280;4483;48.622;9.230;2023-04-04T04:07:47;98617.34;;;-0.78;75.00
8894;BME280;4483;48.622;9.230;2023-04-04T04:10:13;98619.00;;;-0.80;75.20
8894;BME280;4483;48.622;9.230;2023-04-04T04:12:40;98618.19;;;-0.81;75.35
8894;BME280;4483;48.622;9.230;2023-04-04T04:15:09;98615.56;;;-0.85;75.52
8894;BME280;4483;48.622;9.230;2023-04-04T04:17:37;98618.88;;;-0.89;75.53
8894;BME280;4483;48.622;9.230;2023-04-04T04:20:05;98621.38;;;-0.91;75.47
8894;BME280;4483;48.622;9.230;2023-04-04T04:22:32;98617.97;;;-0.93;75.65
8894;BME280;4483;48.622;9.230;2023-04-04T04:24:59;98622.97;;;-0.96;75.67
8894;BME280;4483;48.622;9.230;2023-04-04T04:27:26;98615.38;;;-0.97;75.79
8894;BME280;4483;48.622;9.230;2023-04-04T04:29:53;98620.34;;;-1.01;76.24
8894;BME280;4483;48.622;9.230;2023-04-04T04:32:21;98614.41;;;-1.04;76.37
8894;BME280;4483;48.622;9.230;2023-04-04T04:34:50;98616.09;;;-1.05;76.18
8894;BME280;4483;48.622;9.230;2023-04-04T04:37:17;98618.63;;;-1.05;76.22
8894;BME280;4483;48.622;9.230;2023-04-04T04:39:43;98617.75;;;-1.05;75.92
8894;BME280;4483;48.622;9.230;2023-04-04T04:42:10;98621.97;;;-1.06;76.14
8894;BME280;4483;48.622;9.230;2023-04-04T04:44:37;98618.56;;;-1.08;75.49
8894;BME280;4483;48.622;9.230;2023-04-04T04:47:03;98630.38;;;-1.07;76.43
8894;BME280;4483;48.622;9.230;2023-04-04T04:49:31;98628.66;;;-1.08;75.95
8894;BME280;4483;48.622;9.230;2023-04-04T04:51:58;98627.78;;;-1.10;76.69
8894;BME280;4483;48.622;9.230;2023-04-04T04:54:25;98626.13;;;-1.09;76.67
8894;BME280;4483;48.622;9.230;2023-04-04T04:56:51;98627.81;;;-1.08;76.62
8894;BME280;4483;48.622;9.230;2023-04-04T04:59:18;98629.50;;;-1.09;76.59
8894;BME280;4483;48.622;9.230;2023-04-04T05:01:45;98625.25;;;-1.10;76.82
8894;BME280;4483;48.622;9.230;2023-04-04T05:04:11;98628.66;;;-1.09;77.00
8894;BME280;4483;48.622;9.230;2023-04-04T05:06:40;98634.59;;;-1.07;76.93
8894;BME280;4483;48.622;9.230;2023-04-04T05:09:06;98633.81;;;-1.05;76.83
8894;BME280;4483;48.622;9.230;2023-04-04T05:11:33;98636.38;;;-1.02;77.08
8894;BME280;4483;48.622;9.230;2023-04-04T05:14:00;98635.63;;;-0.96;76.93
8894;BME280;4483;48.622;9.230;2023-04-04T05:16:26;98634.13;;;-0.85;77.23
8894;BME280;4483;48.622;9.230;2023-04-04T05:18:53;98646.97;;;-0.73;77.23
8894;BME280;4483;48.622;9.230;2023-04-04T05:21:20;98641.31;;;-0.58;76.99
8894;BME280;4483;48.622;9.230;2023-04-04T05:23:49;98643.25;;;-0.42;77.11
8894;BME280;4483;48.622;9.230;2023-04-04T05:26:15;98639.25;;;-0.28;76.83
8894;BME280;4483;48.622;9.230;2023-04-04T05:28:42;98643.59;;;-0.18;77.38
8894;BME280;4483;48.622;9.230;2023-04-04T05:31:08;98634.53;;;-0.03;77.48
8894;BME280;4483;48.622;9.230;2023-04-04T05:33:35;98637.31;;;0.17;77.50
8894;BME280;4483;48.622;9.230;2023-04-04T05:36:02;98636.75;;;0.36;77.07
8894;BME280;4483;48.622;9.230;2023-04-04T05:38:29;98635.28;;;0.55;76.52
8894;BME280;4483;48.622;9.230;2023-04-04T05:40:58;98632.94;;;0.71;76.67
8894;BME280;4483;48.622;9.230;2023-04-04T05:43:24;98631.38;;;0.88;76.37
8894;BME280;4483;48.622;9.230;2023-04-04T05:45:51;98634.09;;;1.05;76.40
8894;BME280;4483;48.622;9.230;2023-04-04T05:48:18;98631.72;;;1.22;76.23
8894;BME280;4483;48.622;9.230;2023-04-04T05:50:44;98641.19;;;1.42;75.87
8894;BME280;4483;48.622;9.230;2023-04-04T05:53:11;98634.59;;;1.64;75.64
8894;BME280;4483;48.622;9.230;2023-04-04T05:55:38;98633.88;;;1.87;75.62
8894;BME280;4483;48.622;9.230;2023-04-04T05:58:06;98633.19;;;2.11;75.52
8894;BME280;4483;48.622;9.230;2023-04-04T06:00:33;98630.75;;;2.32;74.49
8894;BME280;4483;48.622;9.230;2023-04-04T06:03:00;98635.09;;;2.56;74.30
8894;BME280;4483;48.622;9.230;2023-04-04T06:05:26;98629.22;;;2.79;73.96
8894;BME280;4483;48.622;9.230;2023-04-04T06:07:53;98638.59;;;3.06;73.76
8894;BME280;4483;48.622;9.230;2023-04-04T06:10:20;98640.31;;;3.25;71.39
8894;BME280;4483;48.622;9.230;2023-04-04T06:12:46;98647.13;;;3.43;70.54
8894;BME280;4483;48.622;9.230;2023-04-04T06:15:15;98640.34;;;3.60;70.91
8894;BME280;4483;48.622;9.230;2023-04-04T06:17:41;98642.84;;;3.78;70.29
8894;BME280;4483;48.622;9.230;2023-04-04T06:20:09;98634.34;;;3.91;68.79
8894;BME280;4483;48.622;9.230;2023-04-04T06:22:36;98629.25;;;4.04;67.87
8894;BME280;4483;48.622;9.230;2023-04-04T06:25:04;98630.06;;;4.17;65.16
8894;BME280;4483;48.622;9.230;2023-04-04T06:27:34;98625.75;;;4.28;65.62
8894;BME280;4483;48.622;9.230;2023-04-04T06:30:01;98627.44;;;4.34;62.29
8894;BME280;4483;48.622;9.230;2023-04-04T06:32:30;98624.81;;;4.49;63.93
8894;BME280;4483;48.622;9.230;2023-04-04T06:34:56;98619.69;;;4.56;61.91
8894;BME280;4483;48.622;9.230;2023-04-04T06:37:23;98616.22;;;4.69;62.37
8894;BME280;4483;48.622;9.230;2023-04-04T06:39:50;98625.44;;;4.94;61.84
8894;BME280;4483;48.622;9.230;2023-04-04T06:42:16;98615.97;;;5.10;59.51
8894;BME280;4483;48.622;9.230;2023-04-04T06:44:43;98617.66;;;5.14;55.20
8894;BME280;4483;48.622;9.230;2023-04-04T06:47:09;98619.31;;;5.17;55.91
8894;BME280;4483;48.622;9.230;2023-04-04T06:49:38;98613.22;;;5.37;57.04
8894;BME280;4483;48.622;9.230;2023-04-04T06:52:04;98614.75;;;5.59;55.53
8894;BME280;4483;48.622;9.230;2023-04-04T06:54:31;98616.22;;;5.89;57.37
8894;BME280;4483;48.622;9.230;2023-04-04T06:56:58;98617.47;;;6.29;57.02
8894;BME280;4483;48.622;9.230;2023-04-04T06:59:25;98612.06;;;6.53;54.53
8894;BME280;4483;48.622;9.230;2023-04-04T07:01:51;98611.75;;;6.76;52.56
8894;BME280;4483;48.622;9.230;2023-04-04T07:04:18;98607.53;;;6.75;49.36
8894;BME280;4483;48.622;9.230;2023-04-04T07:06:46;98608.88;;;7.00;52.24
8894;BME280;4483;48.622;9.230;2023-04-04T07:09:13;98605.31;;;7.10;49.32
8894;BME280;4483;48.622;9.230;2023-04-04T07:11:40;98602.44;;;7.30;50.35
8894;BME280;4483;48.622;9.230;2023-04-04T07:14:06;98603.84;;;7.50;48.89
8894;BME280;4483;48.622;9.230;2023-04-04T07:16:33;98605.00;;;7.30;46.24
8894;BME280;4483;48.622;9.230;2023-04-04T07:19:00;98594.00;;;7.25;47.10
8894;BME280;4483;48.622;9.230;2023-04-04T07:21:27;98606.72;;;7.29;47.60
8894;BME280;4483;48.622;9.230;2023-04-04T07:23:56;98609.97;;;7.40;47.26
8894;BME280;4483;48.622;9.230;2023-04-04T07:26:24;98610.59;;;7.53;46.27
8894;BME280;4483;48.622;9.230;2023-04-04T07:28:51;98607.28;;;7.48;44.31
8894;BME280;4483;48.622;9.230;2023-04-04T07:31:17;98610.50;;;7.59;44.50
8894;BME280;4483;48.622;9.230;2023-04-04T07:33:44;98612.88;;;7.72;44.94
8894;BME280;4483;48.622;9.230;2023-04-04T07:36:11;98604.25;;;7.75;44.48
8894;BME280;4483;48.622;9.230;2023-04-04T07:38:37;98601.53;;;7.84;44.40
8894;BME280;4483;48.622;9.230;2023-04-04T07:41:05;98603.66;;;8.08;44.13
8894;BME280;4483;48.622;9.230;2023-04-04T07:43:32;98601.03;;;8.11;43.41
8894;BME280;4483;48.622;9.230;2023-04-04T07:45:59;98601.53;;;8.31;43.99
8894;BME280;4483;48.622;9.230;2023-04-04T07:48:25;98601.75;;;8.18;43.13
8894;BME280;4483;48.622;9.230;2023-04-04T07:50:52;98601.44;;;8.36;43.24
8894;BME280;4483;48.622;9.230;2023-04-04T07:53:19;98597.38;;;8.67;42.92
8894;BME280;4483;48.622;9.230;2023-04-04T07:55:45;98602.97;;;8.85;42.66
8894;BME280;4483;48.622;9.230;2023-04-04T07:58:13;98609.22;;;9.12;41.84
8894;BME280;4483;48.622;9.230;2023-04-04T08:00:40;98604.84;;;8.77;40.93
8894;BME280;4483;48.622;9.230;2023-04-04T08:03:07;98596.72;;;8.95;40.21
8894;BME280;4483;48.622;9.230;2023-04-04T08:05:33;98600.38;;;9.24;41.81
8894;BME280;4483;48.622;9.230;2023-04-04T08:08:00;98604.72;;;9.57;40.62
8894;BME280;4483;48.622;9.230;2023-04-04T08:10:26;98590.50;;;9.77;39.99
8894;BME280;4483;48.622;9.230;2023-04-04T08:12:53;98594.88;;;10.06;40.93
8894;BME280;4483;48.622;9.230;2023-04-04T08:15:21;98592.25;;;10.40;40.32
8894;BME280;4483;48.622;9.230;2023-04-04T08:17:48;98596.41;;;10.45;38.85
8894;BME280;4483;48.622;9.230;2023-04-04T08:20:15;98591.38;;;10.70;39.55
8894;BME280;4483;48.622;9.230;2023-04-04T08:22:42;98596.09;;;10.85;37.91
8894;BME280;4483;48.622;9.230;2023-04-04T08:25:09;98597.84;;;10.83;38.58
8894;BME280;4483;48.622;9.230;2023-04-04T08:27:38;98600.56;;;10.19;36.64
8894;BME280;4483;48.622;9.230;2023-04-04T08:30:06;98596.78;;;9.99;38.90
8894;BME280;4483;48.622;9.230;2023-04-04T08:32:34;98586.59;;;10.27;39.32
8894;BME280;4483;48.622;9.230;2023-04-04T08:35:01;98589.25;;;10.55;38.09
8894;BME280;4483;48.622;9.230;2023-04-04T08:37:29;98594.34;;;10.85;37.84
8894;BME280;4483;48.622;9.230;2023-04-04T08:39:56;98584.63;;;11.21;37.81
8894;BME280;4483;48.622;9.230;2023-04-04T08:42:23;98579.59;;;11.70;37.83
8894;BME280;4483;48.622;9.230;2023-04-04T08:44:53;98582.84;;;12.01;37.12
8894;BME280;4483;48.622;9.230;2023-04-04T08:47:23;98591.75;;;11.93;35.15
8894;BME280;4483;48.622;9.230;2023-04-04T08:49:52;98586.09;;;11.56;35.55
8894;BME280;4483;48.622;9.230;2023-04-04T08:52:21;98584.59;;;11.49;35.80
8894;BME280;4483;48.622;9.230;2023-04-04T08:54:50;98580.41;;;11.46;36.12
8894;BME280;4483;48.622;9.230;2023-04-04T08:57:17;98587.34;;;11.72;36.30
8894;BME280;4483;48.622;9.230;2023-04-04T08:59:43;98582.88;;;11.49;35.21
8894;BME280;4483;48.622;9.230;2023-04-04T09:02:14;98597.72;;;10.29;34.87
8894;BME280;4483;48.622;9.230;2023-04-04T09:04:42;98591.81;;;10.24;36.95
8894;BME280;4483;48.622;9.230;2023-04-04T09:07:13;98587.13;;;10.69;35.94
8894;BME280;4483;48.622;9.230;2023-04-04T09:09:41;98595.56;;;10.14;35.74
8894;BME280;4483;48.622;9.230;2023-04-04T09:12:11;98589.78;;;9.71;36.73
8894;BME280;4483;48.622;9.230;2023-04-04T09:14:38;98598.97;;;9.10;36.78
8894;BME280;4483;48.622;9.230;2023-04-04T09:17:06;98595.69;;;9.41;37.17
8894;BME280;4483;48.622;9.230;2023-04-04T09:19:34;98595.88;;;10.00;38.01
8894;BME280;4483;48.622;9.230;2023-04-04T09:22:01;98591.63;;;10.90;37.84
8894;BME280;4483;48.622;9.230;2023-04-04T09:24:37;98586.75;;;11.36;35.29
8894;BME280;4483;48.622;9.230;2023-04-04T09:27:06;98592.53;;;11.43;34.81
8894;BME280;4483;48.622;9.230;2023-04-04T09:29:33;98603.72;;;10.88;34.62
8894;BME280;4483;48.622;9.230;2023-04-04T09:32:01;98597.81;;;10.84;35.53
8894;BME280;4483;48.622;9.230;2023-04-04T09:34:28;98589.19;;;10.85;35.36
8894;BME280;4483;48.622;9.230;2023-04-04T09:36:56;98598.38;;;10.94;34.51
8894;BME280;4483;48.622;9.230;2023-04-04T09:39:24;98600.44;;;11.10;35.13
8894;BME280;4483;48.622;9.230;2023-04-04T09:41:52;98586.25;;;11.51;35.03
8894;BME280;4483;48.622;9.230;2023-04-04T09:44:19;98586.34;;;12.00;34.46
8894;BME280;4483;48.622;9.230;2023-04-04T09:46:47;98583.63;;;12.51;34.70
8894;BME280;4483;48.622;9.230;2023-04-04T09:49:18;98576.00;;;12.93;34.08
8894;BME280;4483;48.622;9.230;2023-04-04T09:51:47;98590.13;;;13.07;33.82
8894;BME280;4483;48.622;9.230;2023-04-04T09:54:21;98584.34;;;13.01;31.63
8894;BME280;4483;48.622;9.230;2023-04-04T09:56:48;98586.34;;;12.93;31.45
8894;BME280;4483;48.622;9.230;2023-04-04T09:59:17;98597.06;;;12.61;32.90
8894;BME280;4483;48.622;9.230;2023-04-04T10:01:44;98590.91;;;12.65;32.19
8894;BME280;4483;48.622;9.230;2023-04-04T10:04:12;98581.06;;;12.51;32.01
8894;BME280;4483;48.622;9.230;2023-04-04T10:06:38;98587.13;;;12.50;31.97
8894;BME280;4483;48.622;9.230;2023-04-04T10:09:07;98583.66;;;12.74;31.95
8894;BME280;4483;48.622;9.230;2023-04-04T10:11:34;98578.25;;;13.03;31.82
8894;BME280;4483;48.622;9.230;2023-04-04T10:14:02;98584.41;;;13.43;31.92
8894;BME280;4483;48.622;9.230;2023-04-04T10:16:32;98572.94;;;13.90;31.92
8894;BME280;4483;48.622;9.230;2023-04-04T10:19:03;98569.53;;;14.30;31.68
8894;BME280;4483;48.622;9.230;2023-04-04T10:21:29;98579.16;;;14.26;30.73
8894;BME280;4483;48.622;9.230;2023-04-04T10:23:57;98586.56;;;13.95;31.17
8894;BME280;4483;48.622;9.230;2023-04-04T10:26:26;98568.09;;;13.82;30.84
8894;BME280;4483;48.622;9.230;2023-04-04T10:28:53;98565.75;;;13.96;30.49
8894;BME280;4483;48.622;9.230;2023-04-04T10:31:22;98566.19;;;14.26;31.20
8894;BME280;4483;48.622;9.230;2023-04-04T10:34:05;98572.16;;;13.48;31.42
8894;BME280;4483;48.622;9.230;2023-04-04T10:36:38;98567.25;;;13.20;30.84
8894;BME280;4483;48.622;9.230;2023-04-04T10:39:12;98570.84;;;13.16;30.58
8894;BME280;4483;48.622;9.230;2023-04-04T10:41:39;98570.00;;;12.71;30.24
8894;BME280;4483;48.622;9.230;2023-04-04T10:44:12;98576.13;;;13.13;30.57
8894;BME280;4483;48.622;9.230;2023-04-04T10:46:42;98559.66;;;13.16;30.81
8894;BME280;4483;48.622;9.230;2023-04-04T10:49:13;98560.72;;;13.53;30.97
8894;BME280;4483;48.622;9.230;2023-04-04T10:51:40;98567.34;;;13.80;30.01
8894;BME280;4483;48.622;9.230;2023-04-04T10:54:08;98561.22;;;14.01;31.49
8894;BME280;4483;48.622;9.230;2023-04-04T10:56:35;98559.59;;;14.19;30.01
8894;BME280;4483;48.622;9.230;2023-04-04T10:59:10;98555.47;;;13.95;30.07
8894;BME280;4483;48.622;9.230;2023-04-04T11:01:47;98552.34;;;14.07;30.84
8894;BME280;4483;48.622;9.230;2023-04-04T11:04:17;98565.13;;;13.91;30.51
8894;BME280;4483;48.622;9.230;2023-04-04T11:07:09;98552.94;;;13.53;30.28
8894;BME280;4483;48.622;9.230;2023-04-04T11:09:54;98549.22;;;13.59;30.41
8894;BME280;4483;48.622;9.230;2023-04-04T11:12:26;98536.34;;;13.77;30.32
8894;BME280;4483;48.622;9.230;2023-04-04T11:15:07;98543.09;;;13.81;30.55
8894;BME280;4483;48.622;9.230;2023-04-04T11:17:53;98539.00;;;13.96;29.77
8894;BME280;4483;48.622;9.230;2023-04-04T11:20:23;98538.16;;;13.95;30.18
8894;BME280;4483;48.622;9.230;2023-04-04T11:22:50;98537.78;;;13.84;30.92
8894;BME280;4483;48.622;9.230;2023-04-04T11:25:32;98533.91;;;13.94;30.23
8894;BME280;4483;48.622;9.230;2023-04-04T11:28:04;98532.88;;;13.98;29.90
8894;BME280;4483;48.622;9.230;2023-04-04T11:30:36;98534.56;;;14.38;31.45
8894;BME280;4483;48.622;9.230;2023-04-04T11:33:03;98532.78;;;14.77;30.82
8894;BME280;4483;48.622;9.230;2023-04-04T11:35:31;98524.28;;;15.09;30.34
8894;BME280;4483;48.622;9.230;2023-04-04T11:37:59;98533.81;;;14.92;30.35
8894;BME280;4483;48.622;9.230;2023-04-04T11:40:51;98517.81;;;15.18;29.85
8894;BME280;4483;48.622;9.230;2023-04-04T11:43:18;98520.59;;;15.32;29.28
8894;BME280;4483;48.622;9.230;2023-04-04T11:45:46;98522.81;;;15.40;29.74
8894;BME280;4483;48.622;9.230;2023-04-04T11:48:14;98518.88;;;14.78;29.15
8894;BME280;4483;48.622;9.230;2023-04-04T11:50:45;98532.56;;;13.66;30.15
8894;BME280;4483;48.622;9.230;2023-04-04T11:53:14;98532.34;;;13.70;30.32
8894;BME280;4483;48.622;9.230;2023-04-04T11:55:42;98530.44;;;14.14;29.87
8894;BME280;4483;48.622;9.230;2023-04-04T11:58:12;98529.16;;;14.04;29.97
8894;BME280;4483;48.622;9.230;2023-04-04T12:00:39;98528.41;;;13.62;29.61
8894;BME280;4483;48.622;9.230;2023-04-04T12:03:09;98519.78;;;13.81;30.21
8894;BME280;4483;48.622;9.230;2023-04-04T12:05:36;98527.22;;;14.09;30.25
8894;BME280;4483;48.622;9.230;2023-04-04T12:08:06;98515.91;;;13.71;29.66
8894;BME280;4483;48.622;9.230;2023-04-04T12:10:33;98517.06;;;13.84;29.89
8894;BME280;4483;48.622;9.230;2023-04-04T12:13:01;98522.22;;;13.44;29.46
8894;BME280;4483;48.622;9.230;2023-04-04T12:15:28;98516.59;;;13.35;30.00
8894;BME280;4483;48.622;9.230;2023-04-04T12:17:57;98513.81;;;13.39;29.82
8894;BME280;4483;48.622;9.230;2023-04-04T12:20:24;98522.38;;;13.41;30.68
8894;BME280;4483;48.622;9.230;2023-04-04T12:22:51;98504.84;;;13.68;30.99
8894;BME280;4483;48.622;9.230;2023-04-04T12:25:21;98517.22;;;14.20;30.42
8894;BME280;4483;48.622;9.230;2023-04-04T12:27:49;98509.50;;;13.80;30.19
8894;BME280;4483;48.622;9.230;2023-04-04T12:30:17;98507.47;;;14.25;30.12
8894;BME280;4483;48.622;9.230;2023-04-04T12:32:47;98500.25;;;14.33;29.41
8894;BME280;4483;48.622;9.230;2023-04-04T12:35:15;98512.06;;;14.00;29.72
8894;BME280;4483;48.622;9.230;2023-04-04T12:37:59;98502.78;;;14.14;29.05
8894;BME280;4483;48.622;9.230;2023-04-04T12:40:35;98498.69;;;14.29;29.37
8894;BME280;4483;48.622;9.230;2023-04-04T12:43:04;98494.34;;;14.30;30.07
8894;BME280;4483;48.622;9.230;2023-04-04T12:45:31;98497.41;;;14.19;29.75
8894;BME280;4483;48.622;9.230;2023-04-04T12:47:58;98500.38;;;14.10;29.30
8894;BME280;4483;48.622;9.230;2023-04-04T12:50:26;98493.00;;;14.01;29.24
8894;BME280;4483;48.622;9.230;2023-04-04T12:52:53;98486.97;;;13.82;29.97
8894;BME280;4483;48.622;9.230;2023-04-04T12:55:21;98490.44;;;13.81;29.73
8894;BME280;4483;48.622;9.230;2023-04-04T12:57:50;98481.91;;;13.99;30.55
8894;BME280;4483;48.622;9.230;2023-04-04T13:00:20;98476.69;;;14.38;30.70
8894;BME280;4483;48.622;9.230;2023-04-04T13:02:48;98466.25;;;14.58;30.35
8894;BME280;4483;48.622;9.230;2023-04-04T13:05:16;98469.41;;;14.64;29.72
8894;BME280;4483;48.622;9.230;2023-04-04T13:07:46;98469.06;;;14.35;29.90
8894;BME280;4483;48.622;9.230;2023-04-04T13:10:14;98476.91;;;13.94;29.93
8894;BME280;4483;48.622;9.230;2023-04-04T13:12:57;98470.19;;;14.09;30.37
8894;BME280;4483;48.622;9.230;2023-04-04T13:18:24;98462.41;;;14.29;30.12
8894;BME280;4483;48.622;9.230;2023-04-04T13:20:52;98459.13;;;14.44;30.64
8894;BME280;4483;48.622;9.230;2023-04-04T13:23:21;98472.47;;;14.17;29.52
8894;BME280;4483;48.622;9.230;2023-04-04T13:25:47;98465.84;;;13.91;28.83
8894;BME280;4483;48.622;9.230;2023-04-04T13:28:15;98463.75;;;13.99;29.29
8894;BME280;4483;48.622;9.230;2023-04-04T13:30:42;98451.75;;;13.78;28.93
8894;BME280;4483;48.622;9.230;2023-04-04T13:33:13;98451.25;;;13.88;29.08
8894;BME280;4483;48.622;9.230;2023-04-04T13:35:41;98437.63;;;14.03;28.94